Time;durP1;ratioP1;P1;durP2;ratioP2;P2;SDS_P1;SDS_P2;PMS_P1;PMS_P2;Temp;Humidity;BMP_temperature;BMP_pressure;BME280_temperature;BME280_humidity;BME280_pressure;Samples;Min_cycle;Max_cycle;Signal;HPM_P1;HPM_P2
2023/03/11 00:00:21;;;;;;;8.70;2.17;;;;;;;1.08;98.84;100539.94;5014872;28;20088;-68
2023/03/11 00:02:49;;;;;;;9.68;2.22;;;;;;;1.05;99.71;100538.44;5029818;28;20040;-68
2023/03/11 00:05:20;;;;;;;7.82;2.00;;;;;;;1.03;99.51;100535.13;5034036;28;20445;-68
2023/03/11 00:07:46;;;;;;;;;;;;;;;1.15;100.00;100538.28;5033873;28;20022;-68
2023/03/11 00:10:15;;;;;;;9.38;1.83;;;;;;;1.05;100.00;100541.94;5032308;28;20000;-68
2023/03/11 00:12:40;;;;;;;14.77;2.67;;;;;;;1.01;100.00;100534.44;5028272;28;20026;-68
2023/03/11 00:15:06;;;;;;;10.60;2.55;;;;;;;0.98;99.22;100532.13;5033429;28;20052;-68
2023/03/11 00:17:31;;;;;;;13.00;3.30;;;;;;;0.97;100.00;100546.47;5033213;28;20057;-68
2023/03/11 00:19:57;;;;;;;9.18;2.30;;;;;;;0.92;100.00;100540.81;5022799;28;20104;-68
2023/03/11 00:22:22;;;;;;;9.63;2.05;;;;;;;0.85;100.00;100548.66;5022632;28;20045;-68
2023/03/11 00:24:47;;;;;;;13.93;2.70;;;;;;;0.80;100.00;100556.28;5032838;28;20466;-68
2023/03/11 00:27:13;;;;;;;8.55;2.75;;;;;;;0.76;100.00;100558.47;5033464;28;20029;-68
2023/03/11 00:29:38;;;;;;;13.20;2.58;;;;;;;0.74;100.00;100559.63;5033028;28;20135;-68
2023/03/11 00:32:04;;;;;;;10.38;2.42;;;;;;;0.71;100.00;100560.81;5031081;28;20041;-68
2023/03/11 00:34:29;;;;;;;9.65;2.63;;;;;;;0.69;100.00;100562.81;5014098;28;20095;-68
2023/03/11 00:36:54;;;;;;;7.63;2.38;;;;;;;0.68;100.00;100572.63;5032945;28;20026;-68
2023/03/11 00:39:19;;;;;;;13.63;2.78;;;;;;;0.69;100.00;100573.44;5033081;28;20433;-68
2023/03/11 00:41:45;;;;;;;9.90;2.88;;;;;;;0.64;100.00;100581.94;5031220;28;20064;-68
2023/03/11 00:44:11;;;;;;;9.48;2.80;;;;;;;0.61;100.00;100581.47;5031727;28;20053;-68
2023/03/11 00:46:36;;;;;;;9.10;2.42;;;;;;;0.59;100.00;100583.44;5033250;28;20073;-68
2023/03/11 00:49:02;;;;;;;8.65;2.30;;;;;;;0.61;100.00;100576.13;5032874;28;20508;-68
2023/03/11 00:51:28;;;;;;;11.02;2.85;;;;;;;0.58;100.00;100571.97;5030863;28;20060;-68
2023/03/11 00:53:53;;;;;;;8.15;2.55;;;;;;;0.53;100.00;100577.78;5031212;28;20091;-68
2023/03/11 00:56:19;;;;;;;13.20;2.80;;;;;;;0.53;100.00;100580.44;5033092;28;20044;-68
2023/03/11 00:58:45;;;;;;;7.45;2.63;;;;;;;0.55;100.00;100588.28;5032591;28;20030;-68
2023/03/11 01:01:13;;;;;;;7.28;2.70;;;;;;;0.55;100.00;100592.78;5029054;28;20025;-68
2023/03/11 01:03:39;;;;;;;9.35;2.72;;;;;;;0.52;100.00;100594.75;5012686;28;20037;-68
2023/03/11 01:06:06;;;;;;;8.13;2.28;;;;;;;0.55;100.00;100608.75;5012918;28;20022;-68
2023/03/11 01:08:32;;;;;;;11.02;3.05;;;;;;;0.56;100.00;100605.06;5013168;28;20069;-68
2023/03/11 01:10:58;;;;;;;10.20;2.67;;;;;;;0.59;100.00;100615.38;5014779;28;20122;-68
2023/03/11 01:13:23;;;;;;;10.50;2.88;;;;;;;0.58;100.00;100621.72;5029157;28;20079;-68
2023/03/11 01:15:49;;;;;;;9.20;2.60;;;;;;;0.56;100.00;100615.72;5031917;28;20029;-68
2023/03/11 01:18:15;;;;;;;12.43;2.88;;;;;;;0.56;100.00;100615.72;5032202;28;20032;-68
2023/03/11 01:20:40;;;;;;;9.57;2.28;;;;;;;0.50;100.00;100618.06;5014480;28;20030;-68
2023/03/11 01:23:07;;;;;;;12.63;2.72;;;;;;;0.53;100.00;100625.72;5030860;28;20099;-68
2023/03/11 01:25:32;;;;;;;13.02;2.85;;;;;;;0.51;100.00;100625.06;5032444;28;20033;-68
2023/03/11 01:27:58;;;;;;;11.27;2.75;;;;;;;0.53;100.00;100623.06;5014381;28;20037;-67
2023/03/11 01:30:24;;;;;;;7.63;2.50;;;;;;;0.46;100.00;100624.69;5030592;28;20473;-68
2023/03/11 01:32:51;;;;;;;11.05;2.63;;;;;;;0.52;100.00;100625.88;5012164;28;20484;-68
2023/03/11 01:35:19;;;;;;;8.10;2.20;;;;;;;0.50;100.00;100619.91;5032263;28;20036;-68
2023/03/11 01:37:45;;;;;;;8.88;2.70;;;;;;;0.53;100.00;100622.22;5032397;28;20041;-68
2023/03/11 01:40:23;;;;;;;8.38;2.80;;;;;;;0.57;100.00;100628.06;5032078;28;20099;-68
2023/03/11 01:42:48;;;;;;;11.07;3.22;;;;;;;0.56;100.00;100626.38;5028973;28;20421;-68
2023/03/11 01:45:40;;;;;;;10.25;2.88;;;;;;;0.56;100.00;100621.03;5012998;28;20045;-68
2023/03/11 01:48:08;;;;;;;7.82;2.50;;;;;;;0.51;100.00;100635.72;5032139;28;20108;-68
2023/03/11 01:50:39;;;;;;;13.40;3.08;;;;;;;0.50;100.00;100625.22;5014319;28;20044;-68
2023/03/11 01:53:05;;;;;;;10.68;2.30;;;;;;;0.46;100.00;100621.22;5030213;28;20034;-68
2023/03/11 01:55:31;;;;;;;8.48;2.60;;;;;;;0.46;100.00;100627.38;5033439;28;20032;-68
2023/03/11 01:57:58;;;;;;;8.75;2.75;;;;;;;0.42;100.00;100620.69;5035930;28;20033;-68
2023/03/11 02:00:23;;;;;;;7.13;2.50;;;;;;;0.42;100.00;100623.34;5035267;28;20120;-68
2023/03/11 02:02:56;;;;;;;13.75;2.53;;;;;;;0.39;100.00;100631.66;5032279;28;20532;-68
2023/03/11 02:05:24;;;;;;;10.30;2.67;;;;;;;0.36;100.00;100629.34;5017036;28;20033;-68
2023/03/11 02:07:53;;;;;;;11.13;2.60;;;;;;;0.37;100.00;100628.34;5034785;28;20474;-68
2023/03/11 02:10:19;;;;;;;9.50;2.30;;;;;;;0.38;100.00;100622.03;5026676;28;20045;-68
2023/03/11 02:12:45;;;;;;;8.18;2.15;;;;;;;0.39;100.00;100622.88;5035506;28;20025;-68
2023/03/11 02:15:12;;;;;;;10.70;2.50;;;;;;;0.36;100.00;100626.69;5017811;28;20040;-68
2023/03/11 02:17:39;;;;;;;7.72;2.53;;;;;;;0.34;100.00;100626.00;5035559;28;20037;-68
2023/03/11 02:20:20;;;;;;;10.05;2.38;;;;;;;0.38;100.00;100630.03;5033583;28;20039;-68
2023/03/11 02:22:47;;;;;;;7.80;2.20;;;;;;;0.38;100.00;100632.69;5033217;28;20034;-68
2023/03/11 02:25:44;;;;;;;8.70;2.55;;;;;;;0.37;100.00;100636.34;5017811;28;20393;-68
2023/03/11 02:28:12;;;;;;;11.23;2.25;;;;;;;0.35;100.00;100633.84;5035344;28;20034;-68
2023/03/11 02:30:41;;;;;;;11.35;2.55;;;;;;;0.29;100.00;100636.34;5032327;28;20381;-68
2023/03/11 02:33:09;;;;;;;11.82;2.20;;;;;;;0.34;100.00;100642.00;5025647;28;20138;-68
2023/03/11 02:35:34;;;;;;;9.20;2.45;;;;;;;0.34;100.00;100631.34;5015280;28;20026;-68
2023/03/11 02:38:00;;;;;;;9.30;2.55;;;;;;;0.29;100.00;100626.50;5015321;28;20535;-68
2023/03/11 02:40:34;;;;;;;8.88;2.42;;;;;;;0.32;100.00;100636.00;5017429;28;20461;-68
2023/03/11 02:43:02;;;;;;;5.43;2.10;;;;;;;0.28;100.00;100634.66;4995682;28;20169;-68
2023/03/11 02:45:29;;;;;;;11.23;2.67;;;;;;;0.26;100.00;100636.66;4995573;28;20057;-68
2023/03/11 02:47:57;;;;;;;8.85;2.33;;;;;;;0.25;100.00;100640.31;5003949;28;20044;-68
2023/03/11 02:50:24;;;;;;;11.80;2.90;;;;;;;0.24;100.00;100638.63;5027133;28;20040;-68
2023/03/11 02:52:50;;;;;;;8.02;2.65;;;;;;;0.23;100.00;100632.50;5034949;28;20044;-68
2023/03/11 02:55:17;;;;;;;10.57;2.58;;;;;;;0.20;100.00;100623.97;5034930;28;20463;-68
2023/03/11 02:57:43;;;;;;;8.00;2.60;;;;;;;0.24;100.00;100628.00;5031192;28;20473;-68
2023/03/11 03:00:12;;;;;;;6.13;2.10;;;;;;;0.23;100.00;100631.63;5034722;28;20029;-68
2023/03/11 03:02:37;;;;;;;9.68;2.53;;;;;;;0.21;100.00;100623.00;5031360;28;20030;-68
2023/03/11 03:05:03;;;;;;;10.48;2.20;;;;;;;0.17;100.00;100623.31;5034661;28;20079;-67
2023/03/11 03:07:28;;;;;;;8.05;2.70;;;;;;;0.18;100.00;100629.47;5031983;28;20033;-67
2023/03/11 03:09:54;;;;;;;5.88;2.17;;;;;;;0.17;100.00;100628.63;5034824;28;20073;-68
2023/03/11 03:12:19;;;;;;;6.85;2.13;;;;;;;0.19;100.00;100635.63;5034918;28;20021;-67
2023/03/11 03:14:44;;;;;;;7.47;2.17;;;;;;;0.16;100.00;100629.63;5034323;28;20074;-67
2023/03/11 03:17:10;;;;;;;9.55;2.40;;;;;;;0.17;100.00;100638.47;5032365;28;20021;-67
2023/03/11 03:19:35;;;;;;;12.93;2.45;;;;;;;0.15;100.00;100645.75;5034667;28;20025;-67
2023/03/11 03:22:00;;;;;;;5.75;2.10;;;;;;;0.10;100.00;100651.56;5033108;28;20400;-68
2023/03/11 03:24:25;;;;;;;7.35;2.10;;;;;;;0.09;100.00;100663.22;5032509;28;20033;-68
2023/03/11 03:26:51;;;;;;;6.78;2.45;;;;;;;0.08;100.00;100658.88;5034178;28;20029;-68
2023/03/11 03:29:16;;;;;;;11.32;2.50;;;;;;;0.12;100.00;100673.53;5030850;28;20034;-67
2023/03/11 03:31:41;;;;;;;10.98;2.10;;;;;;;0.06;100.00;100668.00;5034454;28;20021;-67
2023/03/11 03:34:07;;;;;;;7.18;2.13;;;;;;;0.06;100.00;100668.88;5033845;28;20025;-67
2023/03/11 03:36:33;;;;;;;9.15;2.33;;;;;;;0.02;100.00;100672.84;5034271;28;20036;-68
2023/03/11 03:38:58;;;;;;;9.52;2.50;;;;;;;-0.01;100.00;100679.28;5032290;28;20030;-67
2023/03/11 03:41:24;;;;;;;8.68;2.30;;;;;;;0.00;100.00;100680.16;5032052;28;20040;-68
2023/03/11 03:43:49;;;;;;;6.75;2.30;;;;;;;0.02;100.00;100687.97;5033446;28;20033;-68
2023/03/11 03:46:15;;;;;;;8.43;2.40;;;;;;;-0.03;100.00;100686.63;5034172;28;20034;-67
2023/03/11 03:48:40;;;;;;;7.68;2.42;;;;;;;-0.08;100.00;100680.91;5032305;28;20030;-68
2023/03/11 03:51:09;;;;;;;10.15;2.60;;;;;;;-0.03;100.00;100691.09;5034043;28;20357;-68
2023/03/11 03:53:35;;;;;;;10.80;2.47;;;;;;;-0.05;100.00;100693.06;5016248;28;20037;-68
2023/03/11 03:56:05;;;;;;;6.88;2.30;;;;;;;-0.11;100.00;100691.88;5033704;28;20104;-68
2023/03/11 03:58:30;;;;;;;7.88;2.15;;;;;;;-0.06;100.00;100694.91;5030078;28;20029;-68
2023/03/11 04:00:56;;;;;;;8.30;2.15;;;;;;;-0.09;100.00;100703.22;5029222;28;20036;-68
2023/03/11 04:03:22;;;;;;;11.02;2.22;;;;;;;-0.10;100.00;100696.22;5033135;28;20037;-68
2023/03/11 04:05:48;;;;;;;8.40;2.33;;;;;;;-0.08;100.00;100698.72;5033552;28;20094;-68
2023/03/11 04:08:13;;;;;;;4.65;2.00;;;;;;;-0.04;100.00;100705.41;5031450;28;20061;-67
2023/03/11 04:10:38;;;;;;;10.55;2.58;;;;;;;-0.04;100.00;100700.91;5033886;28;20124;-67
2023/03/11 04:13:04;;;;;;;9.25;2.28;;;;;;;-0.03;100.00;100699.06;5015508;28;20072;-68
2023/03/11 04:15:29;;;;;;;7.60;2.97;;;;;;;-0.06;100.00;100702.03;5005566;28;20079;-68
2023/03/11 04:17:54;;;;;;;10.90;2.78;;;;;;;-0.13;100.00;100711.66;5017317;28;20037;-68
2023/03/11 04:20:20;;;;;;;9.40;2.22;;;;;;;-0.12;100.00;100705.34;5033729;28;20063;-68
2023/03/11 04:22:45;;;;;;;9.18;2.40;;;;;;;-0.09;100.00;100707.69;5033166;28;20030;-68
2023/03/11 04:25:10;;;;;;;7.22;2.20;;;;;;;-0.11;100.00;100697.19;5031770;28;20033;-68
2023/03/11 04:27:37;;;;;;;10.07;2.45;;;;;;;-0.12;100.00;100702.69;5031681;28;20036;-68
2023/03/11 04:30:04;;;;;;;7.72;2.10;;;;;;;-0.09;100.00;100705.03;5033127;28;20042;-67
2023/03/11 04:32:29;;;;;;;11.82;2.40;;;;;;;-0.14;100.00;100713.47;5033232;28;20025;-68
2023/03/11 04:34:54;;;;;;;8.70;2.92;;;;;;;-0.14;100.00;100723.28;5031901;28;20030;-68
2023/03/11 04:37:20;;;;;;;9.10;2.83;;;;;;;-0.15;100.00;100717.16;5031184;28;20477;-67
2023/03/11 04:39:45;;;;;;;9.63;2.53;;;;;;;-0.16;100.00;100717.31;5032826;28;20408;-68
2023/03/11 04:42:12;;;;;;;7.65;2.13;;;;;;;-0.24;100.00;100713.59;5032856;28;20568;-68
2023/03/11 04:44:38;;;;;;;10.65;2.80;;;;;;;-0.24;100.00;100718.94;5032715;28;20118;-68
2023/03/11 04:47:04;;;;;;;12.48;2.35;;;;;;;-0.28;100.00;100711.41;5014920;28;20167;-68
2023/03/11 04:49:29;;;;;;;8.80;2.70;;;;;;;-0.29;100.00;100718.53;5030857;28;20036;-68
2023/03/11 04:51:55;;;;;;;7.63;2.33;;;;;;;-0.27;100.00;100721.03;5031504;28;20030;-67
2023/03/11 04:54:21;;;;;;;7.78;2.08;;;;;;;-0.29;100.00;100718.53;5031560;28;20200;-68
2023/03/11 04:56:46;;;;;;;6.30;2.13;;;;;;;-0.33;100.00;100716.34;5032808;28;20548;-67
2023/03/11 04:59:11;;;;;;;8.27;2.55;;;;;;;-0.34;100.00;100718.19;5030686;28;20033;-68
2023/03/11 05:01:36;;;;;;;7.45;2.60;;;;;;;-0.31;100.00;100709.91;5012702;28;20029;-68
2023/03/11 05:04:02;;;;;;;8.95;2.10;;;;;;;-0.38;100.00;100717.69;5014749;28;20132;-68
2023/03/11 05:06:27;;;;;;;5.50;2.28;;;;;;;-0.39;100.00;100715.19;5032741;28;20064;-68
2023/03/11 05:08:52;;;;;;;8.70;2.53;;;;;;;-0.39;100.00;100717.84;5030624;28;20404;-68
2023/03/11 05:11:18;;;;;;;4.75;2.08;;;;;;;-0.39;100.00;100720.50;5029985;28;20037;-68
2023/03/11 05:13:43;;;;;;;7.43;2.30;;;;;;;-0.42;100.00;100728.78;5032320;28;20029;-67
2023/03/11 05:16:09;;;;;;;7.28;2.60;;;;;;;-0.40;100.00;100727.63;5032398;28;20120;-68
2023/03/11 05:18:34;;;;;;;8.68;2.30;;;;;;;-0.45;100.00;100734.41;5030537;28;20177;-68
2023/03/11 05:20:59;;;;;;;8.48;3.03;;;;;;;-0.46;100.00;100732.75;5032289;28;20025;-68
2023/03/11 05:23:25;;;;;;;5.30;2.22;;;;;;;-0.46;100.00;100735.41;5032504;28;20114;-68
2023/03/11 05:25:50;;;;;;;5.97;2.60;;;;;;;-0.47;100.00;100731.88;5030582;28;20116;-68
2023/03/11 05:28:15;;;;;;;6.68;2.20;;;;;;;-0.51;100.00;100740.34;5012918;28;20431;-68
2023/03/11 05:30:41;;;;;;;11.80;2.38;;;;;;;-0.54;100.00;100742.31;5032015;28;20029;-67
2023/03/11 05:33:06;;;;;;;11.90;2.88;;;;;;;-0.62;100.00;100749.38;5032202;28;20136;-68
2023/03/11 05:35:31;;;;;;;6.03;2.35;;;;;;;-0.57;100.00;100757.75;5032319;28;20082;-68
2023/03/11 05:37:56;;;;;;;10.27;2.90;;;;;;;-0.56;100.00;100757.59;5028020;28;20032;-68
2023/03/11 05:40:22;;;;;;;9.30;2.60;;;;;;;-0.56;100.00;100762.91;5031594;28;20144;-67
2023/03/11 05:42:47;;;;;;;13.77;2.45;;;;;;;-0.57;100.00;100763.91;5014540;28;20060;-67
2023/03/11 05:45:13;;;;;;;9.98;2.65;;;;;;;-0.54;100.00;100758.28;5030610;28;20046;-67
2023/03/11 05:47:41;;;;;;;7.13;2.42;;;;;;;-0.58;100.00;100759.56;5029050;28;20071;-67
2023/03/11 05:50:07;;;;;;;5.32;2.28;;;;;;;-0.55;100.00;100759.25;5014226;28;20033;-68
2023/03/11 05:52:32;;;;;;;6.63;2.40;;;;;;;-0.56;100.00;100764.72;5032076;28;20030;-68
2023/03/11 05:54:58;;;;;;;8.70;2.40;;;;;;;-0.58;100.00;100772.03;5031845;28;20032;-68
2023/03/11 05:57:23;;;;;;;5.65;2.40;;;;;;;-0.57;100.00;100768.38;5012688;28;20037;-67
2023/03/11 05:59:49;;;;;;;6.13;2.33;;;;;;;-0.54;100.00;100768.06;5031000;28;20068;-68
2023/03/11 06:02:15;;;;;;;6.22;2.33;;;;;;;-0.56;100.00;100770.88;5011059;28;20121;-67
2023/03/11 06:04:40;;;;;;;9.73;2.55;;;;;;;-0.57;100.00;100773.69;5014506;28;20037;-67
2023/03/11 06:07:06;;;;;;;10.48;2.45;;;;;;;-0.59;100.00;100776.50;5030179;28;20039;-67
2023/03/11 06:09:34;;;;;;;6.22;2.15;;;;;;;-0.61;100.00;100775.81;5032130;28;20040;-68
2023/03/11 06:11:59;;;;;;;6.88;2.45;;;;;;;-0.64;100.00;100784.09;5031581;28;20112;-68
2023/03/11 06:14:27;;;;;;;7.90;2.47;;;;;;;-0.65;100.00;100787.75;5014397;28;20464;-68
2023/03/11 06:16:52;;;;;;;7.10;2.63;;;;;;;-0.64;100.00;100784.09;5029937;28;20037;-68
2023/03/11 06:19:19;;;;;;;7.10;2.72;;;;;;;-0.65;100.00;100786.91;5031780;28;20507;-67
2023/03/11 06:21:44;;;;;;;6.32;2.38;;;;;;;-0.70;100.00;100787.38;5030360;28;20435;-68
2023/03/11 06:24:09;;;;;;;6.32;2.30;;;;;;;-0.69;100.00;100796.16;4994253;28;20142;-68
2023/03/11 06:26:35;;;;;;;8.98;2.50;;;;;;;-0.70;100.00;100794.53;5013924;28;20040;-68
2023/03/11 06:29:00;;;;;;;7.00;2.50;;;;;;;-0.69;100.00;100790.84;5031682;28;20381;-67
2023/03/11 06:31:27;;;;;;;7.18;2.13;;;;;;;-0.68;100.00;100806.69;5031978;28;20064;-67
2023/03/11 06:33:54;;;;;;;7.22;2.80;;;;;;;-0.67;100.00;100813.63;5031844;28;20033;-68
2023/03/11 06:36:21;;;;;;;11.30;3.20;;;;;;;-0.65;100.00;100808.16;5028297;28;20473;-67
2023/03/11 06:38:48;;;;;;;7.53;2.97;;;;;;;-0.65;100.00;100808.16;5025286;28;20073;-68
2023/03/11 06:41:13;;;;;;;8.50;2.60;;;;;;;-0.61;100.00;100809.53;4992375;28;20038;-68
2023/03/11 06:43:39;;;;;;;6.55;2.70;;;;;;;-0.59;100.00;100819.03;4995447;28;20032;-68
2023/03/11 06:46:21;;;;;;;13.55;4.70;;;;;;;-0.61;100.00;100825.50;4994236;28;20490;-68
2023/03/11 06:48:50;;;;;;;12.63;3.25;;;;;;;-0.59;100.00;100835.00;5034424;28;20469;-68
2023/03/11 06:51:16;;;;;;;7.75;3.22;;;;;;;-0.56;100.00;100833.81;5034892;28;20037;-68
2023/03/11 06:53:42;;;;;;;8.52;3.30;;;;;;;-0.52;100.00;100834.38;5034970;28;20104;-68
2023/03/11 06:56:12;;;;;;;8.30;2.70;;;;;;;-0.50;100.00;100837.72;5033777;28;20396;-67
2023/03/11 06:58:39;;;;;;;7.47;3.47;;;;;;;-0.48;100.00;100847.22;5033253;28;20461;-68
2023/03/11 07:01:04;;;;;;;10.63;3.65;;;;;;;-0.43;100.00;100860.88;5032836;28;20060;-67
2023/03/11 07:03:30;;;;;;;11.60;4.82;;;;;;;-0.41;100.00;100858.06;5035027;28;20363;-68
2023/03/11 07:05:56;;;;;;;13.63;5.68;;;;;;;-0.35;100.00;100868.06;5034983;28;20057;-68
2023/03/11 07:08:21;;;;;;;17.75;6.90;;;;;;;-0.34;100.00;100875.06;5015458;28;20495;-67
2023/03/11 07:10:59;;;;;;;10.13;3.20;;;;;;;-0.32;100.00;100872.25;5035247;28;20112;-68
2023/03/11 07:13:24;;;;;;;11.38;2.83;;;;;;;-0.31;100.00;100866.78;5032810;28;20487;-67
2023/03/11 07:15:59;;;;;;;9.10;2.85;;;;;;;-0.28;100.00;100869.13;5016941;28;20100;-68
2023/03/11 07:18:24;;;;;;;10.00;3.13;;;;;;;-0.27;100.00;100869.97;5031520;28;20120;-72
2023/03/11 07:20:51;;;;;;;6.05;2.70;;;;;;;-0.21;100.00;100874.69;5033648;28;20109;-69
2023/03/11 07:23:17;;;;;;;9.48;3.00;;;;;;;-0.19;100.00;100873.53;5034537;28;20080;-70
2023/03/11 07:25:46;;;;;;;11.90;3.47;;;;;;;-0.13;100.00;100880.06;5034476;28;20033;-69
2023/03/11 07:28:11;;;;;;;9.77;3.00;;;;;;;-0.09;100.00;100877.91;5031224;28;20061;-69
2023/03/11 07:30:40;;;;;;;8.02;2.60;;;;;;;-0.03;100.00;100883.47;5032817;28;20057;-69
2023/03/11 07:33:05;;;;;;;8.15;2.85;;;;;;;0.05;100.00;100884.53;5033465;28;20025;-69
2023/03/11 07:35:31;;;;;;;6.43;2.72;;;;;;;0.10;100.00;100883.06;5031672;28;20113;-69
2023/03/11 07:37:56;;;;;;;4.93;2.35;;;;;;;0.17;100.00;100891.28;5034744;28;20037;-69
2023/03/11 07:40:22;;;;;;;11.75;3.00;;;;;;;0.22;100.00;100893.47;5034395;28;20108;-69
2023/03/11 07:42:47;;;;;;;10.48;2.78;;;;;;;0.25;100.00;100890.47;5034409;28;20106;-69
2023/03/11 07:45:13;;;;;;;10.93;2.70;;;;;;;0.32;100.00;100887.03;5032116;28;20482;-69
2023/03/11 07:47:38;;;;;;;10.10;2.95;;;;;;;0.37;100.00;100889.22;5033338;28;20034;-69
2023/03/11 07:50:04;;;;;;;10.00;2.85;;;;;;;0.42;100.00;100891.41;5034117;28;20172;-73
2023/03/11 07:52:32;;;;;;;11.68;3.20;;;;;;;0.46;100.00;100901.59;5033923;28;20389;-68
2023/03/11 07:54:58;;;;;;;9.52;2.83;;;;;;;0.52;100.00;100905.47;5031618;28;20025;-70
2023/03/11 07:57:23;;;;;;;9.40;2.92;;;;;;;0.56;100.00;100911.28;5021953;28;20041;-70
2023/03/11 07:59:48;;;;;;;6.75;2.80;;;;;;;0.59;100.00;100913.63;5014307;28;20026;-69
2023/03/11 08:02:14;;;;;;;9.88;2.83;;;;;;;0.66;100.00;100909.34;5010326;28;20025;-70
2023/03/11 08:04:39;;;;;;;9.13;2.80;;;;;;;0.73;100.00;100914.91;5012771;28;20036;-70
2023/03/11 08:07:05;;;;;;;17.83;3.33;;;;;;;0.79;100.00;100909.75;5031051;28;20040;-70
2023/03/11 08:09:30;;;;;;;10.52;2.80;;;;;;;0.82;100.00;100908.63;5033928;28;20040;-69
2023/03/11 08:11:55;;;;;;;8.68;3.03;;;;;;;0.91;100.00;100922.78;5033774;28;20029;-69
2023/03/11 08:14:21;;;;;;;8.23;2.88;;;;;;;0.97;100.00;100917.66;5033249;28;20062;-75
2023/03/11 08:16:46;;;;;;;10.82;3.00;;;;;;;1.01;100.00;100924.34;5024102;28;20033;-69
2023/03/11 08:19:12;;;;;;;7.70;3.50;;;;;;;1.12;100.00;100925.88;5031659;28;20053;-69
2023/03/11 08:21:38;;;;;;;8.70;2.97;;;;;;;1.17;100.00;100923.56;5026506;28;20039;-69
2023/03/11 08:24:03;;;;;;;9.05;3.00;;;;;;;1.26;100.00;100920.94;5030621;28;20033;-69
2023/03/11 08:26:29;;;;;;;8.93;2.78;;;;;;;1.33;97.68;100921.94;5026462;28;21292;-72
2023/03/11 08:28:56;;;;;;;6.53;2.63;;;;;;;1.35;98.44;100923.44;5013409;28;20033;-69
2023/03/11 08:31:25;;;;;;;5.90;2.90;;;;;;;1.42;100.00;100928.97;5027922;28;20043;-69
2023/03/11 08:33:52;;;;;;;7.13;2.70;;;;;;;1.48;90.46;100933.66;5005102;28;20036;-69
2023/03/11 08:36:19;;;;;;;5.20;2.30;;;;;;;1.55;91.79;100937.31;5032326;28;20036;-69
2023/03/11 08:38:44;;;;;;;8.77;2.92;;;;;;;1.61;89.79;100929.69;5033497;28;20025;-69
2023/03/11 08:41:10;;;;;;;6.35;2.58;;;;;;;1.68;89.49;100931.53;5033295;28;20389;-69
2023/03/11 08:43:35;;;;;;;5.43;2.08;;;;;;;1.74;85.27;100936.19;5002393;28;20054;-69
2023/03/11 08:46:02;;;;;;;7.85;2.00;;;;;;;1.82;83.39;100943.38;5013199;28;20124;-69
2023/03/11 08:48:27;;;;;;;7.13;2.00;;;;;;;1.88;78.00;100942.72;5032117;28;20068;-69
2023/03/11 08:50:53;;;;;;;6.72;2.60;;;;;;;1.94;77.32;100946.56;5033101;28;20068;-69
2023/03/11 08:53:18;;;;;;;7.18;2.90;;;;;;;2.03;77.29;100952.75;5013579;28;20040;-69
2023/03/11 08:55:44;;;;;;;10.15;2.00;;;;;;;2.08;76.69;100959.25;5032587;28;20034;-69
2023/03/11 08:58:09;;;;;;;6.40;1.58;;;;;;;2.12;69.93;100955.22;5011120;28;20067;-69
2023/03/11 09:00:35;;;;;;;5.60;1.05;;;;;;;2.17;70.61;100953.91;5028935;28;20095;-69
2023/03/11 09:03:00;;;;;;;5.50;1.52;;;;;;;2.25;71.16;100961.91;5014959;28;20029;-69
2023/03/11 09:05:25;;;;;;;3.35;1.10;;;;;;;2.25;65.78;100956.56;5030147;28;20032;-69
2023/03/11 09:07:51;;;;;;;5.40;1.30;;;;;;;2.28;66.06;100970.44;5031000;28;20048;-68
2023/03/11 09:10:16;;;;;;;10.55;1.30;;;;;;;2.32;65.76;100959.41;5023333;28;20430;-69
2023/03/11 09:12:42;;;;;;;3.60;1.33;;;;;;;2.32;65.58;100956.72;5005751;28;20051;-69
2023/03/11 09:15:08;;;;;;;7.53;1.60;;;;;;;2.34;68.01;100957.38;5032438;28;20040;-68
2023/03/11 09:17:34;;;;;;;6.25;1.40;;;;;;;2.43;72.09;100967.06;5014838;28;20030;-73
2023/03/11 09:19:59;;;;;;;6.00;1.50;;;;;;;2.45;73.04;100963.22;5031083;28;20113;-69
2023/03/11 09:22:24;;;;;;;4.88;1.58;;;;;;;2.54;69.68;100971.25;5025983;28;20028;-69
2023/03/11 09:24:50;;;;;;;4.65;1.65;;;;;;;2.59;67.87;100972.38;5018741;28;20037;-69
2023/03/11 09:27:15;;;;;;;10.48;1.77;;;;;;;2.72;69.00;100974.53;5014715;28;20026;-69
2023/03/11 09:29:41;;;;;;;5.88;1.45;;;;;;;2.70;71.29;100978.38;5020257;28;20080;-69
2023/03/11 09:32:06;;;;;;;6.90;1.67;;;;;;;2.83;70.34;100984.03;5014908;28;20033;-69
2023/03/11 09:34:32;;;;;;;4.75;1.48;;;;;;;2.86;68.88;100993.56;5032330;28;20033;-70
2023/03/11 09:36:57;;;;;;;8.32;1.70;;;;;;;2.90;67.10;100993.03;5032740;28;20124;-70
2023/03/11 09:39:23;;;;;;;6.97;1.60;;;;;;;2.91;66.85;100985.84;5011970;28;20042;-70
2023/03/11 09:41:55;;;;;;;6.15;1.50;;;;;;;2.90;65.57;100979.69;5030262;28;20033;-70
2023/03/11 09:44:35;;;;;;;9.98;1.85;;;;;;;3.01;68.71;100981.16;5032007;28;20049;-70
2023/03/11 09:47:18;;;;;;;7.25;1.60;;;;;;;3.08;66.54;100981.28;5032484;28;20021;-70
2023/03/11 09:49:52;;;;;;;8.13;1.33;;;;;;;3.12;67.17;100985.28;5012886;28;20088;-69
2023/03/11 09:52:31;;;;;;;4.68;1.40;;;;;;;3.17;65.16;100980.25;5029526;28;20053;-70
2023/03/11 09:54:59;;;;;;;6.63;1.83;;;;;;;3.15;64.56;100988.44;5011757;28;20036;-70
2023/03/11 09:57:29;;;;;;;5.10;1.45;;;;;;;3.24;68.38;100978.56;5012485;28;20480;-75
2023/03/11 09:59:55;;;;;;;6.72;1.77;;;;;;;3.36;69.33;100984.34;5013286;28;20046;-70
2023/03/11 10:02:25;;;;;;;8.55;1.83;;;;;;;3.45;69.32;100983.31;5027291;28;20029;-70
2023/03/11 10:04:58;;;;;;;11.13;2.03;;;;;;;3.52;70.23;100984.28;5032316;28;20026;-70
2023/03/11 10:07:32;;;;;;;3.60;1.33;;;;;;;3.55;63.94;100978.56;5013925;28;20469;-70
2023/03/11 10:09:58;;;;;;;5.38;1.20;;;;;;;3.52;65.38;100978.94;5029609;28;20432;-70
2023/03/11 10:12:51;;;;;;;5.28;1.30;;;;;;;3.58;66.65;100980.06;5028067;28;20037;-70
2023/03/11 10:15:37;;;;;;;4.32;1.25;;;;;;;3.56;65.74;100984.75;5032123;28;20160;-71
2023/03/11 10:18:05;;;;;;;5.60;1.40;;;;;;;3.47;61.79;100985.81;5029138;28;20109;-72
2023/03/11 10:20:49;;;;;;;5.82;1.40;;;;;;;3.53;63.38;100990.44;5035372;28;20021;-73
2023/03/11 10:23:27;;;;;;;5.38;1.27;;;;;;;3.54;67.06;100997.47;5022766;28;20476;-71
2023/03/11 10:26:43;;;;;;;6.70;1.33;;;;;;;3.59;65.13;101005.81;5014882;28;20041;-70
2023/03/11 10:29:31;;;;;;;5.00;1.38;;;;;;;3.61;65.57;101009.16;4960884;28;20050;-72
2023/03/11 10:32:16;;;;;;;6.22;1.25;;;;;;;3.65;64.84;101009.63;5010925;28;20081;-71
2023/03/11 10:34:53;;;;;;;4.15;1.35;;;;;;;3.60;62.66;101003.97;5014096;28;20030;-70
2023/03/11 10:37:31;;;;;;;3.58;1.20;;;;;;;3.65;64.53;101006.94;5021471;28;20029;-72
2023/03/11 10:40:04;;;;;;;4.30;1.30;;;;;;;3.71;65.39;101012.47;5035820;28;20053;-69
2023/03/11 10:42:32;;;;;;;5.30;1.40;;;;;;;3.82;67.74;101005.88;5035135;28;20101;-71
2023/03/11 10:44:58;;;;;;;5.20;1.40;;;;;;;3.92;64.33;101004.78;5033858;28;20099;-71
2023/03/11 10:47:24;;;;;;;4.20;1.23;;;;;;;3.94;64.16;101011.66;5012857;28;20037;-71
2023/03/11 10:49:51;;;;;;;7.30;1.60;;;;;;;3.98;66.23;101007.59;5035320;28;20040;-69
2023/03/11 10:52:17;;;;;;;8.90;1.27;;;;;;;4.03;65.59;101015.94;5035151;28;20416;-73
2023/03/11 10:54:47;;;;;;;6.15;1.67;;;;;;;3.98;62.30;101007.59;5033907;28;20120;-69
2023/03/11 10:57:37;;;;;;;7.45;1.70;;;;;;;4.05;62.47;101010.41;5033291;28;20033;-73
2023/03/11 11:00:11;;;;;;;5.35;1.42;;;;;;;4.03;60.29;101007.91;5017537;28;20776;-72
2023/03/11 11:02:56;;;;;;;6.57;1.45;;;;;;;4.12;62.69;101005.97;5031109;28;20033;-70
2023/03/11 11:05:31;;;;;;;5.15;1.13;;;;;;;4.08;61.46;101013.53;5033521;28;20095;-73
2023/03/11 11:08:13;;;;;;;5.78;1.63;;;;;;;4.04;59.84;101011.41;5016415;28;20036;-72
2023/03/11 11:10:47;;;;;;;;;;;;;;;4.14;65.99;101003.16;5016527;28;20036;-72
2023/03/11 11:13:13;;;;;;;3.72;1.60;;;;;;;4.14;61.66;101013.88;5009397;28;20291;-72
2023/03/11 11:15:41;;;;;;;7.40;1.40;;;;;;;4.21;60.26;101004.06;5016178;28;20048;-69
2023/03/11 11:18:20;;;;;;;7.32;1.30;;;;;;;4.22;60.02;101013.78;5017484;28;20553;-70
2023/03/11 11:21:05;;;;;;;6.13;1.25;;;;;;;4.23;60.29;101018.16;5013217;28;20022;-71
2023/03/11 11:23:39;;;;;;;7.78;1.33;;;;;;;4.20;60.03;101021.19;5014658;28;20032;-72